Time;durP1;ratioP1;P1;durP2;ratioP2;P2;SDS_P1;SDS_P2;PMS_P1;PMS_P2;Temp;Humidity;BMP_temperature;BMP_pressure;BME280_temperature;BME280_humidity;BME280_pressure;Samples;Min_cycle;Max_cycle;Signal;HPM_P1;HPM_P2
2021/09/02 00:00:39;;;;;;;19.83;12.23;;;;;;;;;;5032622;28;20488;-45
2021/09/02 00:03:05;;;;;;;23.20;13.10;;;;;;;;;;5032484;28;20404;-44
2021/09/02 00:05:32;;;;;;;27.20;12.47;;;;;;;;;;5032991;28;20430;-45
2021/09/02 00:07:58;;;;;;;21.57;12.10;;;;;;;;;;5021621;28;20416;-45
2021/09/02 00:10:24;;;;;;;21.60;13.40;;;;;;;;;;5032123;28;20790;-45
2021/09/02 00:12:50;;;;;;;21.83;13.90;;;;;;;;;;5032292;28;20407;-45
2021/09/02 00:15:16;;;;;;;34.47;15.73;;;;;;;;;;5031487;28;20467;-45
2021/09/02 00:17:42;;;;;;;34.10;14.20;;;;;;;;;;5032541;28;20403;-44
2021/09/02 00:20:08;;;;;;;28.47;15.37;;;;;;;;;;5032472;28;20411;-45
2021/09/02 00:22:34;;;;;;;27.63;14.57;;;;;;;;;;5032094;28;20410;-45
2021/09/02 00:25:00;;;;;;;32.27;15.67;;;;;;;;;;5032369;28;20741;-45
2021/09/02 00:27:26;;;;;;;28.93;16.33;;;;;;;;;;5031338;28;20440;-46
2021/09/02 00:29:52;;;;;;;20.70;14.13;;;;;;;;;;5032225;28;20481;-46
2021/09/02 00:32:18;;;;;;;28.87;15.50;;;;;;;;;;5031890;28;20915;-44
2021/09/02 00:34:44;;;;;;;23.20;15.10;;;;;;;;;;5032165;28;20478;-45
2021/09/02 00:37:10;;;;;;;24.10;14.10;;;;;;;;;;5032079;28;20403;-44
2021/09/02 00:39:36;;;;;;;26.67;14.20;;;;;;;;;;5033058;28;20404;-45
2021/09/02 00:42:02;;;;;;;27.27;13.97;;;;;;;;;;5031684;28;20414;-44
2021/09/02 00:44:38;;;;;;;27.73;14.13;;;;;;;;;;5032137;28;20403;-45
2021/09/02 00:47:05;;;;;;;24.37;14.67;;;;;;;;;;5032111;28;20406;-45
2021/09/02 00:49:31;;;;;;;28.20;14.20;;;;;;;;;;5031949;28;20975;-46
2021/09/02 00:52:14;;;;;;;22.57;13.27;;;;;;;;;;5031635;28;20519;-47
2021/09/02 00:54:42;;;;;;;28.00;12.70;;;;;;;;;;5031879;28;20455;-45
2021/09/02 00:57:09;;;;;;;20.87;12.37;;;;;;;;;;5031950;28;20406;-46
2021/09/02 00:59:35;;;;;;;26.20;12.97;;;;;;;;;;5031133;28;20437;-45
2021/09/02 01:02:00;;;;;;;21.53;12.33;;;;;;;;;;5030914;28;20545;-46
2021/09/02 01:04:26;;;;;;;26.93;12.77;;;;;;;;;;5031430;28;20405;-45
2021/09/02 01:06:53;;;;;;;21.80;12.90;;;;;;;;;;5031448;28;20453;-45
2021/09/02 01:09:20;;;;;;;27.60;11.90;;;;;;;;;;5031595;28;20414;-45
2021/09/02 01:11:46;;;;;;;19.50;12.33;;;;;;;;;;5031328;28;20415;-44
2021/09/02 01:14:16;;;;;;;24.10;12.53;;;;;;;;;;5031756;28;20450;-44
2021/09/02 01:16:42;;;;;;;21.93;12.43;;;;;;;;;;5031734;28;20490;-45
2021/09/02 01:19:08;;;;;;;23.80;13.40;;;;;;;;;;5031743;28;20875;-45
2021/09/02 01:21:34;;;;;;;30.33;15.07;;;;;;;;;;5031334;28;20502;-44
2021/09/02 01:24:00;;;;;;;32.07;15.20;;;;;;;;;;5035509;28;20402;-46
2021/09/02 01:26:26;;;;;;;30.63;14.20;;;;;;;;;;5035730;28;20416;-46
2021/09/02 01:28:52;;;;;;;36.97;14.53;;;;;;;;;;5034698;28;20461;-45
2021/09/02 01:31:19;;;;;;;34.07;15.47;;;;;;;;;;5035085;28;20447;-47
2021/09/02 01:33:45;;;;;;;27.83;12.90;;;;;;;;;;5035517;28;20433;-46
2021/09/02 01:36:11;;;;;;;32.87;13.00;;;;;;;;;;5035533;28;20450;-46
2021/09/02 01:38:37;;;;;;;39.77;12.80;;;;;;;;;;5035564;28;20446;-46
2021/09/02 01:41:03;;;;;;;22.87;13.40;;;;;;;;;;5035082;28;20469;-46
2021/09/02 01:43:29;;;;;;;30.77;13.50;;;;;;;;;;5035423;28;20426;-46
2021/09/02 01:45:55;;;;;;;24.43;14.23;;;;;;;;;;5035289;28;20410;-46
2021/09/02 01:48:21;;;;;;;22.43;12.50;;;;;;;;;;5035324;28;20838;-47
2021/09/02 01:50:47;;;;;;;20.23;12.30;;;;;;;;;;5035079;28;20428;-48
2021/09/02 01:53:15;;;;;;;31.80;13.50;;;;;;;;;;5035192;28;20804;-45
2021/09/02 01:55:42;;;;;;;23.17;13.20;;;;;;;;;;5035063;28;20458;-47
2021/09/02 01:58:08;;;;;;;22.43;11.93;;;;;;;;;;5035139;28;20407;-46
2021/09/02 02:00:35;;;;;;;19.33;11.37;;;;;;;;;;5034031;28;20453;-45
2021/09/02 02:03:01;;;;;;;20.30;12.37;;;;;;;;;;5034894;28;20399;-45
2021/09/02 02:05:27;;;;;;;21.47;12.07;;;;;;;;;;5035031;28;20423;-45
2021/09/02 02:07:53;;;;;;;22.13;11.73;;;;;;;;;;5034947;28;20968;-45
2021/09/02 02:10:22;;;;;;;29.13;13.90;;;;;;;;;;5034863;28;20422;-45
2021/09/02 02:12:48;;;;;;;23.77;12.10;;;;;;;;;;5034615;28;20489;-45
2021/09/02 02:15:15;;;;;;;35.03;12.77;;;;;;;;;;5034725;28;20553;-44
2021/09/02 02:17:41;;;;;;;32.43;13.93;;;;;;;;;;5034896;28;20417;-44
2021/09/02 02:20:08;;;;;;;26.37;12.93;;;;;;;;;;5034627;28;20402;-45
2021/09/02 02:22:34;;;;;;;28.10;14.50;;;;;;;;;;5034447;28;20402;-45
2021/09/02 02:25:00;;;;;;;26.60;13.67;;;;;;;;;;5034643;28;20414;-45
2021/09/02 02:27:26;;;;;;;20.10;11.80;;;;;;;;;;5034551;28;20410;-44
2021/09/02 02:29:52;;;;;;;20.00;12.23;;;;;;;;;;5033508;28;20500;-46
2021/09/02 02:32:18;;;;;;;22.03;13.13;;;;;;;;;;5033502;28;20454;-47
2021/09/02 02:34:44;;;;;;;23.40;13.57;;;;;;;;;;5034038;28;20870;-44
2021/09/02 02:37:10;;;;;;;21.57;12.23;;;;;;;;;;5034466;28;20764;-46
2021/09/02 02:39:38;;;;;;;22.43;12.13;;;;;;;;;;5034391;28;20411;-46
2021/09/02 02:42:07;;;;;;;24.47;12.30;;;;;;;;;;5033877;28;20465;-47
2021/09/02 02:44:33;;;;;;;21.47;13.80;;;;;;;;;;5034486;28;20804;-46
2021/09/02 02:46:59;;;;;;;35.40;14.43;;;;;;;;;;5034251;28;20443;-46
2021/09/02 02:49:25;;;;;;;32.60;13.73;;;;;;;;;;5034227;28;20406;-46
2021/09/02 02:51:52;;;;;;;28.73;12.27;;;;;;;;;;5033876;28;20426;-46
2021/09/02 02:54:18;;;;;;;24.17;13.17;;;;;;;;;;5034028;28;20477;-46
2021/09/02 02:56:44;;;;;;;23.30;13.13;;;;;;;;;;5034102;28;20425;-46
2021/09/02 02:59:10;;;;;;;26.13;14.37;;;;;;;;;;5033063;28;20917;-46
2021/09/02 03:01:36;;;;;;;26.20;13.70;;;;;;;;;;5033656;28;20434;-46
2021/09/02 03:04:02;;;;;;;21.10;12.20;;;;;;;;;;5034018;28;20436;-46
2021/09/02 03:06:28;;;;;;;24.27;12.17;;;;;;;;;;5033909;28;20437;-46
2021/09/02 03:08:54;;;;;;;25.43;13.23;;;;;;;;;;5033832;28;20407;-46
2021/09/02 03:11:20;;;;;;;25.30;13.60;;;;;;;;;;5033443;28;20514;-46
2021/09/02 03:13:46;;;;;;;22.90;12.80;;;;;;;;;;5033793;28;20489;-46
2021/09/02 03:16:12;;;;;;;31.80;14.40;;;;;;;;;;5033759;28;20811;-46
2021/09/02 03:18:38;;;;;;;17.43;13.23;;;;;;;;;;5033586;28;20398;-46
2021/09/02 03:21:04;;;;;;;66.47;14.73;;;;;;;;;;5033254;28;20454;-46
2021/09/02 03:23:30;;;;;;;25.13;13.00;;;;;;;;;;5033625;28;20398;-46
2021/09/02 03:25:55;;;;;;;107.87;17.73;;;;;;;;;;5033457;28;20894;-46
2021/09/02 03:28:21;;;;;;;28.63;14.53;;;;;;;;;;5033469;28;20410;-46
2021/09/02 03:30:47;;;;;;;27.87;13.67;;;;;;;;;;5031964;28;20505;-46
2021/09/02 03:33:13;;;;;;;46.57;15.07;;;;;;;;;;5032194;28;20790;-46
2021/09/02 03:35:39;;;;;;;34.10;16.73;;;;;;;;;;5032653;28;20510;-46
2021/09/02 03:38:06;;;;;;;198.47;20.93;;;;;;;;;;5033291;28;20406;-46
2021/09/02 03:40:32;;;;;;;48.07;15.93;;;;;;;;;;5033109;28;20427;-46
2021/09/02 03:42:58;;;;;;;151.00;21.53;;;;;;;;;;5032914;28;20489;-47
2021/09/02 03:45:24;;;;;;;63.90;17.27;;;;;;;;;;5032379;28;20410;-46
2021/09/02 03:47:50;;;;;;;29.33;15.83;;;;;;;;;;5033082;28;20407;-47
2021/09/02 03:50:20;;;;;;;59.07;15.10;;;;;;;;;;5033066;28;20445;-44
2021/09/02 03:52:46;;;;;;;138.17;19.30;;;;;;;;;;5032697;28;20960;-44
2021/09/02 03:55:12;;;;;;;64.03;17.60;;;;;;;;;;5032749;28;20497;-45
2021/09/02 03:57:39;;;;;;;45.63;17.83;;;;;;;;;;5032941;28;20436;-44
2021/09/02 04:00:06;;;;;;;58.77;17.67;;;;;;;;;;5031644;28;20462;-44
2021/09/02 04:02:33;;;;;;;80.83;17.50;;;;;;;;;;5032533;28;20403;-45
2021/09/02 04:04:59;;;;;;;60.07;15.93;;;;;;;;;;5032745;28;20482;-46
2021/09/02 04:07:25;;;;;;;102.13;15.10;;;;;;;;;;5032661;28;20426;-46
2021/09/02 04:09:51;;;;;;;143.77;19.40;;;;;;;;;;5032603;28;20906;-46
2021/09/02 04:12:16;;;;;;;30.03;13.70;;;;;;;;;;5032364;28;20765;-46
2021/09/02 04:14:42;;;;;;;106.57;16.77;;;;;;;;;;5032611;28;20506;-46
2021/09/02 04:17:08;;;;;;;141.70;19.77;;;;;;;;;;5032490;28;20402;-46
2021/09/02 04:19:34;;;;;;;92.03;17.60;;;;;;;;;;5032545;28;20824;-46
2021/09/02 04:22:01;;;;;;;67.27;16.77;;;;;;;;;;5032062;28;20458;-46
2021/09/02 04:24:26;;;;;;;63.43;16.37;;;;;;;;;;5032442;28;20410;-46
2021/09/02 04:26:53;;;;;;;60.77;16.20;;;;;;;;;;5032373;28;20406;-46
2021/09/02 04:29:19;;;;;;;67.90;16.90;;;;;;;;;;5031391;28;20444;-46
2021/09/02 04:31:45;;;;;;;43.40;17.60;;;;;;;;;;5031852;28;20443;-46
2021/09/02 04:34:11;;;;;;;36.03;14.30;;;;;;;;;;5032219;28;20450;-47
2021/09/02 04:36:37;;;;;;;38.80;13.93;;;;;;;;;;5032141;28;20401;-45
2021/09/02 04:39:04;;;;;;;35.73;16.93;;;;;;;;;;5032208;28;20820;-46
2021/09/02 04:41:30;;;;;;;26.53;15.37;;;;;;;;;;5031802;28;20418;-46
2021/09/02 04:43:56;;;;;;;27.57;14.57;;;;;;;;;;5032171;28;20923;-46
2021/09/02 04:46:22;;;;;;;25.97;16.27;;;;;;;;;;5032127;28;20412;-46
2021/09/02 04:48:48;;;;;;;31.00;15.00;;;;;;;;;;5032077;28;20485;-46
2021/09/02 04:51:16;;;;;;;32.23;15.70;;;;;;;;;;5031610;28;20430;-46
2021/09/02 04:53:42;;;;;;;40.03;16.60;;;;;;;;;;5032072;28;20453;-46
2021/09/02 04:56:07;;;;;;;41.63;16.60;;;;;;;;;;5031696;28;20476;-46
2021/09/02 04:58:33;;;;;;;27.53;13.60;;;;;;;;;;5031811;28;20906;-45
2021/09/02 05:00:59;;;;;;;38.10;15.10;;;;;;;;;;5031201;28;20809;-46
2021/09/02 05:03:25;;;;;;;104.30;18.80;;;;;;;;;;5031924;28;20411;-46
2021/09/02 05:05:51;;;;;;;80.40;17.67;;;;;;;;;;5031847;28;20397;-46
2021/09/02 05:08:17;;;;;;;35.00;15.00;;;;;;;;;;5031814;28;20418;-46
2021/09/02 05:10:43;;;;;;;37.57;13.87;;;;;;;;;;5031752;28;20497;-46
2021/09/02 05:13:09;;;;;;;33.27;15.20;;;;;;;;;;5031589;28;20414;-46
2021/09/02 05:15:35;;;;;;;38.47;15.83;;;;;;;;;;5031663;28;20450;-47
2021/09/02 05:18:01;;;;;;;61.03;14.17;;;;;;;;;;5031723;28;20961;-47
2021/09/02 05:20:27;;;;;;;21.50;13.87;;;;;;;;;;5031632;28;20422;-46
2021/09/02 05:22:53;;;;;;;33.63;16.90;;;;;;;;;;5031414;28;20498;-47
2021/09/02 05:25:19;;;;;;;35.90;18.03;;;;;;;;;;5031707;28;20406;-46
2021/09/02 05:27:45;;;;;;;27.40;14.70;;;;;;;;;;5031664;28;20407;-46
2021/09/02 05:30:12;;;;;;;23.47;14.83;;;;;;;;;;5030484;28;21111;-47
2021/09/02 05:32:39;;;;;;;26.70;12.90;;;;;;;;;;5031878;28;20407;-45
2021/09/02 05:35:06;;;;;;;21.43;13.53;;;;;;;;;;5031508;28;20453;-44
2021/09/02 05:37:32;;;;;;;32.57;14.50;;;;;;;;;;5031580;28;20410;-45
2021/09/02 05:39:58;;;;;;;40.30;14.60;;;;;;;;;;5031778;28;20395;-47
2021/09/02 05:42:25;;;;;;;26.90;14.93;;;;;;;;;;5031243;28;20406;-44
2021/09/02 05:44:51;;;;;;;22.40;13.00;;;;;;;;;;5031479;28;20434;-44
2021/09/02 05:47:17;;;;;;;20.80;13.33;;;;;;;;;;5031432;28;20933;-44
2021/09/02 05:49:43;;;;;;;20.53;12.60;;;;;;;;;;5031419;28;20490;-45
2021/09/02 05:52:09;;;;;;;21.50;13.40;;;;;;;;;;5031090;28;20430;-46
2021/09/02 05:54:35;;;;;;;30.57;14.80;;;;;;;;;;5031313;28;20450;-46
2021/09/02 05:57:01;;;;;;;24.20;14.53;;;;;;;;;;5031390;28;20396;-47
2021/09/02 05:59:27;;;;;;;20.47;13.67;;;;;;;;;;5031382;28;20480;-44
2021/09/02 06:01:53;;;;;;;20.10;12.40;;;;;;;;;;5029586;28;20985;-44
2021/09/02 06:04:19;;;;;;;22.47;14.10;;;;;;;;;;5031243;28;20511;-44
2021/09/02 06:06:45;;;;;;;21.80;13.47;;;;;;;;;;5031358;28;20410;-45
2021/09/02 06:09:11;;;;;;;24.60;13.63;;;;;;;;;;5032766;28;20910;-45
2021/09/02 06:11:37;;;;;;;21.77;13.47;;;;;;;;;;5034588;28;20423;-44
2021/09/02 06:14:03;;;;;;;22.87;13.87;;;;;;;;;;5034395;28;20449;-45
2021/09/02 06:16:30;;;;;;;21.60;14.33;;;;;;;;;;5034324;28;20399;-45
2021/09/02 06:18:56;;;;;;;23.50;13.13;;;;;;;;;;5034066;28;20401;-45
2021/09/02 06:21:22;;;;;;;20.30;12.60;;;;;;;;;;5033910;28;20419;-45
2021/09/02 06:23:48;;;;;;;21.50;14.20;;;;;;;;;;5034237;28;20411;-45
2021/09/02 06:26:14;;;;;;;21.80;12.73;;;;;;;;;;5033974;28;20435;-45
2021/09/02 06:28:40;;;;;;;26.90;15.20;;;;;;;;;;5033958;28;20442;-46
2021/09/02 06:31:06;;;;;;;23.53;13.67;;;;;;;;;;5032368;28;20971;-48
2021/09/02 06:33:32;;;;;;;20.10;12.93;;;;;;;;;;5034053;28;20863;-45
2021/09/02 06:35:58;;;;;;;24.73;14.10;;;;;;;;;;5033850;28;20463;-44
2021/09/02 06:38:24;;;;;;;21.77;14.00;;;;;;;;;;5033972;28;20404;-47
2021/09/02 06:40:50;;;;;;;24.80;13.43;;;;;;;;;;5033384;28;21176;-44
2021/09/02 06:43:16;;;;;;;21.60;14.20;;;;;;;;;;5033731;28;20443;-44
2021/09/02 06:45:42;;;;;;;27.33;13.47;;;;;;;;;;5034201;28;20399;-44
2021/09/02 06:48:08;;;;;;;23.87;14.20;;;;;;;;;;5034194;28;20496;-44
2021/09/02 06:50:35;;;;;;;25.20;14.10;;;;;;;;;;5034295;28;20432;-44
2021/09/02 06:53:01;;;;;;;25.10;15.00;;;;;;;;;;5033908;28;20434;-45
2021/09/02 06:55:27;;;;;;;22.33;14.93;;;;;;;;;;5033664;28;20498;-44
2021/09/02 06:57:53;;;;;;;27.67;13.97;;;;;;;;;;5027015;28;20420;-44
2021/09/02 07:00:19;;;;;;;24.53;14.70;;;;;;;;;;5020874;28;20459;-44
2021/09/02 07:02:45;;;;;;;26.10;15.87;;;;;;;;;;5019375;28;20430;-44
2021/09/02 07:05:11;;;;;;;21.30;14.07;;;;;;;;;;5014190;28;20492;-45
2021/09/02 07:07:37;;;;;;;23.80;13.87;;;;;;;;;;5014073;28;20418;-45
2021/09/02 07:10:04;;;;;;;21.60;13.60;;;;;;;;;;5014582;28;20447;-44
2021/09/02 07:12:30;;;;;;;23.40;14.47;;;;;;;;;;5022488;28;20413;-44
2021/09/02 07:14:56;;;;;;;19.83;13.77;;;;;;;;;;5025599;28;21166;-45
2021/09/02 07:17:22;;;;;;;21.87;14.40;;;;;;;;;;5033673;28;20396;-44
2021/09/02 07:19:48;;;;;;;17.43;13.50;;;;;;;;;;5020317;28;20445;-44
2021/09/02 07:22:16;;;;;;;22.27;14.03;;;;;;;;;;5013480;28;20438;-45
2021/09/02 07:24:42;;;;;;;42.47;14.77;;;;;;;;;;5013866;28;20441;-45
2021/09/02 07:27:08;;;;;;;17.60;13.50;;;;;;;;;;5015860;28;20408;-46
2021/09/02 07:29:34;;;;;;;17.83;11.60;;;;;;;;;;5033328;28;20408;-46
2021/09/02 07:32:00;;;;;;;13.93;11.10;;;;;;;;;;5032049;28;20444;-47
2021/09/02 07:34:26;;;;;;;16.30;11.20;;;;;;;;;;5033299;28;20451;-45
2021/09/02 07:36:52;;;;;;;19.93;11.33;;;;;;;;;;5033341;28;20407;-46
2021/09/02 07:39:18;;;;;;;13.13;9.53;;;;;;;;;;5033176;28;20394;-46
2021/09/02 07:41:44;;;;;;;11.07;9.70;;;;;;;;;;5032771;28;20429;-47
2021/09/02 07:44:10;;;;;;;11.60;9.50;;;;;;;;;;5030982;28;20402;-48
2021/09/02 07:46:38;;;;;;;14.13;10.80;;;;;;;;;;5013358;28;20434;-45
2021/09/02 07:49:04;;;;;;;17.40;10.20;;;;;;;;;;5013376;28;20469;-45
2021/09/02 07:51:30;;;;;;;13.37;10.53;;;;;;;;;;5026818;28;20436;-46
2021/09/02 07:53:56;;;;;;;14.47;10.97;;;;;;;;;;5032940;28;20485;-46
2021/09/02 07:56:22;;;;;;;13.27;9.60;;;;;;;;;;5032785;28;20462;-46
2021/09/02 07:58:47;;;;;;;16.93;10.10;;;;;;;;;;5014900;28;20456;-48
2021/09/02 08:01:14;;;;;;;13.60;9.70;;;;;;;;;;5030842;28;20461;-46
2021/09/02 08:03:41;;;;;;;17.80;9.90;;;;;;;;;;5032150;28;20481;-46
2021/09/02 08:06:07;;;;;;;20.63;9.63;;;;;;;;;;5032829;28;20406;-46
2021/09/02 08:08:33;;;;;;;13.43;9.23;;;;;;;;;;5032750;28;20409;-45
2021/09/02 08:10:59;;;;;;;13.00;10.10;;;;;;;;;;5032293;28;20434;-46
2021/09/02 08:13:25;;;;;;;22.00;10.07;;;;;;;;;;5032576;28;20489;-45
2021/09/02 08:15:51;;;;;;;16.97;9.57;;;;;;;;;;5032593;28;20453;-46
2021/09/02 08:20:53;;;;;;;15.80;10.00;;;;;;;;;;5269384;23;20226;-48
2021/09/02 08:23:19;;;;;;;13.90;9.97;;;;;;;;;;5042413;28;20591;-47
2021/09/02 08:25:45;;;;;;;15.27;9.33;;;;;;;;;;5035337;28;20434;-48
2021/09/02 08:28:11;;;;;;;13.27;9.80;;;;;;;;;;5017659;28;20876;-50
2021/09/02 08:30:37;;;;;;;16.63;11.20;;;;;;;;;;5045402;28;20449;-51
2021/09/02 08:33:03;;;;;;;16.93;9.80;;;;;;;;;;5052081;28;20421;-50
2021/09/02 08:35:31;;;;;;;17.80;10.43;;;;;;;;;;5050293;28;20508;-49
2021/09/02 08:38:08;;;;;;;17.37;9.20;;;;;;;;;;5048375;28;20498;-47
2021/09/02 08:40:35;;;;;;;18.20;9.47;;;;;;;;;;5031725;28;20434;-46
2021/09/02 08:43:02;;;;;;;15.70;9.80;;;;;;;;;;5032027;28;20413;-46
2021/09/02 08:45:29;;;;;;;14.87;8.67;;;;;;;;;;5032157;28;20406;-46
2021/09/02 08:47:55;;;;;;;18.03;10.20;;;;;;;;;;5032065;28;20393;-47
2021/09/02 08:50:23;;;;;;;15.83;10.60;;;;;;;;;;5031649;28;20509;-47
2021/09/02 08:52:50;;;;;;;15.63;9.83;;;;;;;;;;5031940;28;20398;-47
2021/09/02 08:55:16;;;;;;;13.70;8.57;;;;;;;;;;5036825;28;20467;-46
2021/09/02 08:57:42;;;;;;;13.90;10.10;;;;;;;;;;5050648;28;20549;-47
2021/09/02 09:00:10;;;;;;;15.30;8.27;;;;;;;;;;5051602;28;20425;-47
2021/09/02 09:02:39;;;;;;;20.60;11.40;;;;;;;;;;5051751;28;20416;-47
2021/09/02 09:05:10;;;;;;;22.00;10.60;;;;;;;;;;5051836;28;20409;-46
2021/09/02 09:07:38;;;;;;;11.10;8.40;;;;;;;;;;5017619;28;20440;-47
2021/09/02 09:10:09;;;;;;;15.30;9.03;;;;;;;;;;5051563;28;21026;-47
2021/09/02 09:12:36;;;;;;;17.13;10.10;;;;;;;;;;5051590;28;20409;-47
2021/09/02 09:15:03;;;;;;;12.53;10.50;;;;;;;;;;5051660;28;20459;-47
2021/09/02 09:17:30;;;;;;;12.60;9.97;;;;;;;;;;5051710;28;20447;-47
2021/09/02 09:19:57;;;;;;;12.17;7.80;;;;;;;;;;5046283;28;20441;-46
2021/09/02 09:22:24;;;;;;;18.33;10.27;;;;;;;;;;5050518;28;20445;-47
2021/09/02 09:24:50;;;;;;;14.67;10.27;;;;;;;;;;5051510;28;20429;-47
2021/09/02 09:27:19;;;;;;;14.70;9.20;;;;;;;;;;5051728;28;20432;-47
2021/09/02 09:29:45;;;;;;;12.77;10.20;;;;;;;;;;5032462;28;20450;-48
2021/09/02 09:32:18;;;;;;;15.63;9.47;;;;;;;;;;5031588;28;20501;-46
2021/09/02 09:34:48;;;;;;;17.67;10.50;;;;;;;;;;5031404;28;20450;-47
2021/09/02 09:37:14;;;;;;;16.83;10.70;;;;;;;;;;5031607;28;20410;-47
2021/09/02 09:39:43;;;;;;;13.97;10.03;;;;;;;;;;5031283;28;20465;-49
2021/09/02 09:42:09;;;;;;;14.97;10.23;;;;;;;;;;5031511;28;20394;-47
2021/09/02 09:44:35;;;;;;;11.93;10.73;;;;;;;;;;5034519;28;20402;-48
2021/09/02 09:47:01;;;;;;;20.20;13.27;;;;;;;;;;5035288;28;20409;-49
2021/09/02 09:49:28;;;;;;;17.30;11.83;;;;;;;;;;5043658;28;20980;-49
2021/09/02 09:51:53;;;;;;;16.90;11.73;;;;;;;;;;5055044;28;20700;-47
2021/09/02 09:54:26;;;;;;;15.13;10.40;;;;;;;;;;5055134;28;20413;-48
2021/09/02 09:56:52;;;;;;;16.40;9.40;;;;;;;;;;5055038;28;20401;-47
2021/09/02 09:59:18;;;;;;;14.30;9.73;;;;;;;;;;5054747;28;20424;-48
2021/09/02 10:01:44;;;;;;;13.87;11.03;;;;;;;;;;5054816;28;20405;-47
2021/09/02 10:04:10;;;;;;;12.17;9.27;;;;;;;;;;5054973;28;20401;-47
2021/09/02 10:06:36;;;;;;;16.43;10.40;;;;;;;;;;5054910;28;20401;-48
2021/09/02 10:09:02;;;;;;;14.77;10.63;;;;;;;;;;5054636;28;20402;-48
2021/09/02 10:11:29;;;;;;;12.60;10.40;;;;;;;;;;5054812;28;20402;-48
2021/09/02 10:13:55;;;;;;;13.13;10.50;;;;;;;;;;5054738;28;20915;-50
2021/09/02 10:16:21;;;;;;;24.37;10.73;;;;;;;;;;5054665;28;20958;-47
2021/09/02 10:18:48;;;;;;;14.43;9.33;;;;;;;;;;5054607;28;21275;-48
2021/09/02 10:21:15;;;;;;;12.13;9.47;;;;;;;;;;5050764;28;20449;-47
2021/09/02 10:23:42;;;;;;;14.13;8.90;;;;;;;;;;5053280;28;20432;-47
2021/09/02 10:26:28;;;;;;;17.87;9.50;;;;;;;;;;5034560;28;20446;-47
2021/09/02 10:28:54;;;;;;;18.50;12.20;;;;;;;;;;5034365;28;20432;-50
2021/09/02 10:31:23;;;;;;;14.30;9.10;;;;;;;;;;5034230;28;20921;-47
2021/09/02 10:33:50;;;;;;;13.97;9.50;;;;;;;;;;5034566;28;20402;-47
2021/09/02 10:36:16;;;;;;;13.57;10.20;;;;;;;;;;5031456;28;20461;-50
2021/09/02 10:38:42;;;;;;;12.47;9.57;;;;;;;;;;5031219;28;20418;-47
2021/09/02 10:41:09;;;;;;;11.07;8.90;;;;;;;;;;5033697;28;20437;-47
2021/09/02 10:43:48;;;;;;;12.07;8.70;;;;;;;;;;5033954;28;20783;-50
2021/09/02 10:46:24;;;;;;;17.17;11.10;;;;;;;;;;5011129;28;20417;-46
2021/09/02 10:48:50;;;;;;;12.20;9.20;;;;;;;;;;5033463;28;20420;-47
2021/09/02 10:51:33;;;;;;;12.13;9.90;;;;;;;;;;5023782;28;20445;-49
2021/09/02 10:54:01;;;;;;;12.13;8.83;;;;;;;;;;5021573;28;20422;-47
2021/09/02 10:56:34;;;;;;;11.90;8.77;;;;;;;;;;5035689;28;20489;-47
2021/09/02 10:59:02;;;;;;;19.53;9.37;;;;;;;;;;5034063;28;20422;-46
2021/09/02 11:01:30;;;;;;;12.40;10.20;;;;;;;;;;5033581;28;20406;-46
2021/09/02 11:03:56;;;;;;;10.70;9.50;;;;;;;;;;5034044;28;20485;-47
2021/09/02 11:06:23;;;;;;;11.77;9.50;;;;;;;;;;5033868;28;20417;-46
2021/09/02 11:08:49;;;;;;;12.60;9.33;;;;;;;;;;5033235;28;20501;-49
2021/09/02 11:11:17;;;;;;;9.90;7.80;;;;;;;;;;5032455;28;20525;-49
2021/09/02 11:13:44;;;;;;;15.73;9.80;;;;;;;;;;5033055;28;20418;-47
2021/09/02 11:16:10;;;;;;;18.53;10.83;;;;;;;;;;5033465;28;20496;-47
2021/09/02 11:18:46;;;;;;;14.27;10.80;;;;;;;;;;5033639;28;20399;-48
2021/09/02 11:21:12;;;;;;;16.43;10.10;;;;;;;;;;5036785;28;20470;-49
2021/09/02 11:23:40;;;;;;;14.40;10.20;;;;;;;;;;5053244;28;20532;-50
2021/09/02 11:26:07;;;;;;;13.03;9.53;;;;;;;;;;5053437;28;20177;-48
2021/09/02 11:28:46;;;;;;;10.53;8.70;;;;;;;;;;5053411;28;20409;-48
2021/09/02 11:31:12;;;;;;;19.23;10.30;;;;;;;;;;5052170;28;20968;-50
2021/09/02 11:33:45;;;;;;;11.00;8.40;;;;;;;;;;5053227;28;20457;-47
2021/09/02 11:36:11;;;;;;;15.30;9.80;;;;;;;;;;5053051;28;20508;-48
2021/09/02 11:38:37;;;;;;;13.07;9.20;;;;;;;;;;5038886;28;20893;-49
2021/09/02 11:41:07;;;;;;;15.20;8.10;;;;;;;;;;5032862;28;20766;-49
2021/09/02 11:43:37;;;;;;;11.87;8.40;;;;;;;;;;5033256;28;20429;-50
2021/09/02 11:46:06;;;;;;;11.00;8.93;;;;;;;;;;5032903;28;20501;-47
2021/09/02 11:48:44;;;;;;;11.20;9.10;;;;;;;;;;5032913;28;20982;-50
2021/09/02 11:51:09;;;;;;;16.20;9.37;;;;;;;;;;5033641;28;20836;-47
2021/09/02 11:53:35;;;;;;;19.30;10.50;;;;;;;;;;5052035;28;20431;-47
2021/09/02 11:56:17;;;;;;;13.50;9.30;;;;;;;;;;5052761;28;20952;-48
2021/09/02 11:58:43;;;;;;;13.77;10.07;;;;;;;;;;5051387;28;20401;-49
2021/09/02 12:01:09;;;;;;;15.27;9.50;;;;;;;;;;5052366;28;20947;-47
2021/09/02 12:03:35;;;;;;;14.33;9.50;;;;;;;;;;5052700;28;20393;-47
2021/09/02 12:06:01;;;;;;;15.50;9.20;;;;;;;;;;5052030;28;20416;-50
2021/09/02 12:08:27;;;;;;;16.73;10.53;;;;;;;;;;5052583;28;20413;-47
2021/09/02 12:10:53;;;;;;;12.10;10.17;;;;;;;;;;5037993;28;20504;-48
2021/09/02 12:13:23;;;;;;;10.70;6.80;;;;;;;;;;5032047;28;20422;-47
2021/09/02 12:16:02;;;;;;;18.00;9.97;;;;;;;;;;5030758;28;20952;-48
2021/09/02 12:18:29;;;;;;;11.60;10.40;;;;;;;;;;5030644;28;20434;-49
2021/09/02 12:21:06;;;;;;;15.23;11.80;;;;;;;;;;5031450;28;20426;-48
2021/09/02 12:23:32;;;;;;;18.43;12.10;;;;;;;;;;5030525;28;20448;-47
2021/09/02 12:26:03;;;;;;;12.20;8.50;;;;;;;;;;5029457;28;20426;-51
2021/09/02 12:28:36;;;;;;;12.17;9.30;;;;;;;;;;5030278;28;20497;-49
2021/09/02 12:31:20;;;;;;;17.80;11.53;;;;;;;;;;5031776;28;20442;-51
2021/09/02 12:33:55;;;;;;;18.37;11.67;;;;;;;;;;5030118;28;20488;-52
2021/09/02 12:36:21;;;;;;;17.17;11.83;;;;;;;;;;5031634;28;21211;-51
2021/09/02 12:38:48;;;;;;;20.60;14.27;;;;;;;;;;5032111;28;20897;-51
2021/09/02 12:41:20;;;;;;;16.57;9.90;;;;;;;;;;5030955;28;21104;-52
2021/09/02 12:44:06;;;;;;;15.97;10.60;;;;;;;;;;5030065;28;20407;-51
2021/09/02 12:46:52;;;;;;;13.90;10.60;;;;;;;;;;5029687;28;20441;-49
2021/09/02 12:49:19;;;;;;;16.90;12.57;;;;;;;;;;5027940;28;20434;-48
2021/09/02 12:51:58;;;;;;;19.70;11.30;;;;;;;;;;5031355;28;20406;-49
2021/09/02 12:54:24;;;;;;;14.17;11.10;;;;;;;;;;5032557;28;20452;-47
2021/09/02 12:56:50;;;;;;;15.67;10.77;;;;;;;;;;5031610;28;20656;-49
2021/09/02 12:59:16;;;;;;;22.63;14.23;;;;;;;;;;5031279;28;20434;-47
2021/09/02 13:01:42;;;;;;;15.10;10.43;;;;;;;;;;5030245;28;20406;-49
2021/09/02 13:04:08;;;;;;;25.07;11.57;;;;;;;;;;5029932;28;20402;-48
2021/09/02 13:06:34;;;;;;;17.63;12.40;;;;;;;;;;5030133;28;20433;-48
2021/09/02 13:09:03;;;;;;;15.40;10.23;;;;;;;;;;5029912;28;20449;-50
2021/09/02 13:11:29;;;;;;;18.40;14.27;;;;;;;;;;5029911;28;20882;-47
2021/09/02 13:13:56;;;;;;;14.47;10.50;;;;;;;;;;5030099;28;20406;-47
2021/09/02 13:16:22;;;;;;;13.87;11.83;;;;;;;;;;5031299;28;20969;-50
2021/09/02 13:18:48;;;;;;;20.80;12.70;;;;;;;;;;5035001;28;20402;-49
2021/09/02 13:21:15;;;;;;;17.87;11.33;;;;;;;;;;5034594;28;20433;-50
2021/09/02 13:23:41;;;;;;;13.30;11.00;;;;;;;;;;5050008;28;20445;-47
2021/09/02 13:26:09;;;;;;;19.00;12.13;;;;;;;;;;5034834;28;20503;-48
2021/09/02 13:28:34;;;;;;;16.40;11.00;;;;;;;;;;5032413;28;20414;-47
2021/09/02 13:31:00;;;;;;;16.10;12.30;;;;;;;;;;5033640;28;20466;-48
2021/09/02 13:33:26;;;;;;;19.77;11.90;;;;;;;;;;5033422;28;20460;-49
2021/09/02 13:35:52;;;;;;;16.20;13.10;;;;;;;;;;5033587;28;20455;-49
2021/09/02 13:38:18;;;;;;;18.07;13.23;;;;;;;;;;5033713;28;20468;-48
2021/09/02 13:40:44;;;;;;;16.07;11.70;;;;;;;;;;5034462;28;20422;-47
2021/09/02 13:43:11;;;;;;;16.87;12.40;;;;;;;;;;5034970;28;20440;-49
2021/09/02 13:45:37;;;;;;;12.83;11.40;;;;;;;;;;5035043;28;21020;-48
2021/09/02 13:48:03;;;;;;;15.20;11.20;;;;;;;;;;5032053;28;20406;-48
2021/09/02 13:50:29;;;;;;;14.10;10.50;;;;;;;;;;5034715;28;20838;-49
2021/09/02 13:52:55;;;;;;;12.83;9.93;;;;;;;;;;5042734;28;20426;-49
2021/09/02 13:55:21;;;;;;;14.10;11.33;;;;;;;;;;5034655;28;21189;-47
2021/09/02 13:57:47;;;;;;;18.43;12.50;;;;;;;;;;5034674;28;20785;-48
2021/09/02 14:00:13;;;;;;;17.23;11.80;;;;;;;;;;5034624;28;20870;-46
2021/09/02 14:02:39;;;;;;;15.97;11.53;;;;;;;;;;5034681;28;20897;-47
2021/09/02 14:05:06;;;;;;;12.37;9.20;;;;;;;;;;5034868;28;20467;-46
2021/09/02 14:07:32;;;;;;;11.00;9.87;;;;;;;;;;5033488;28;20410;-47
2021/09/02 14:09:58;;;;;;;14.17;9.50;;;;;;;;;;5034162;28;20464;-48
2021/09/02 14:12:24;;;;;;;14.40;10.23;;;;;;;;;;5034638;28;20417;-49
2021/09/02 14:14:50;;;;;;;13.40;12.00;;;;;;;;;;5033626;28;21039;-50
2021/09/02 14:17:16;;;;;;;13.37;9.80;;;;;;;;;;5032896;28;20402;-48
2021/09/02 14:19:42;;;;;;;19.17;9.33;;;;;;;;;;5032611;28;20422;-47